Vilna, Canada
Current Conditions -  °F | °C
As of 5:00 PM on Monday 20 Oct 2014 (Local Time) from CYOD Reporting Station
Few Clouds Few Clouds  
Wind Chill: 66°   Ceiling: Unl
Heat Index: 66°   Visibility: 15mi
Dew Point: 37°   Wind: 6mph
Humidity: 35%   Direction: 190°S
Pressure: 29.56"   Gusts: NA
Location:  54.12°N, 111.92°W
Report Text: CYOD 202300Z 19005KT 15SM FEW240 19/03 A2956 RMK CI1 SLP021
Loading
Personal Weather Stations






























Interactive Weather Map
Tropical Storm Tracking
New forecast layout! Learn more

10-Day Weather Forecast

Advertisements
Track Severe Weather on mobile